Time;durP1;ratioP1;P1;durP2;ratioP2;P2;SDS_P1;SDS_P2;PMS_P1;PMS_P2;Temp;Humidity;BMP_temperature;BMP_pressure;BME280_temperature;BME280_humidity;BME280_pressure;Samples;Min_cycle;Max_cycle;Signal;HPM_P1;HPM_P2
2022/07/13 00:01:26;;;;;;;4.43;2.78;;;;;;;;;;5052979;28;20025;-39
2022/07/13 00:03:52;;;;;;;6.22;3.50;;;;;;;;;;5053095;28;20477;-39
2022/07/13 00:06:18;;;;;;;6.93;3.78;;;;;;;;;;5052546;28;20106;-39
2022/07/13 00:08:44;;;;;;;5.03;3.42;;;;;;;;;;5052731;28;20067;-38
2022/07/13 00:11:11;;;;;;;5.85;3.30;;;;;;;;;;5052703;28;20028;-37
2022/07/13 00:13:37;;;;;;;8.50;4.95;;;;;;;;;;5053031;28;20021;-38
2022/07/13 00:16:03;;;;;;;8.48;4.40;;;;;;;;;;5053121;28;20378;-38
2022/07/13 00:18:29;;;;;;;5.80;3.65;;;;;;;;;;5053196;28;20029;-38
2022/07/13 00:20:55;;;;;;;5.13;3.40;;;;;;;;;;5053580;28;20021;-38
2022/07/13 00:23:21;;;;;;;3.25;2.88;;;;;;;;;;5053356;28;20100;-38
2022/07/13 00:25:47;;;;;;;6.43;3.30;;;;;;;;;;5053444;28;20049;-38
2022/07/13 00:28:13;;;;;;;3.88;2.88;;;;;;;;;;5052684;28;20064;-38
2022/07/13 00:30:39;;;;;;;6.78;3.47;;;;;;;;;;5052861;28;20029;-45
2022/07/13 00:33:05;;;;;;;4.15;3.35;;;;;;;;;;5052598;28;20432;-38
2022/07/13 00:35:31;;;;;;;3.58;3.13;;;;;;;;;;5053379;28;20464;-38
2022/07/13 00:37:57;;;;;;;7.40;4.05;;;;;;;;;;5053341;28;20100;-39
2022/07/13 00:40:24;;;;;;;9.95;3.80;;;;;;;;;;5051541;28;20039;-38
2022/07/13 00:42:50;;;;;;;5.78;3.42;;;;;;;;;;5053438;28;20072;-38
2022/07/13 00:45:16;;;;;;;6.78;4.65;;;;;;;;;;5053248;28;20113;-42
2022/07/13 00:47:43;;;;;;;7.43;4.07;;;;;;;;;;5051972;28;20036;-38
2022/07/13 00:50:09;;;;;;;8.15;4.03;;;;;;;;;;5052891;28;20024;-39
2022/07/13 00:52:36;;;;;;;10.40;4.25;;;;;;;;;;5055836;28;20021;-39
2022/07/13 00:55:02;;;;;;;6.30;3.97;;;;;;;;;;5057000;28;20021;-39
2022/07/13 00:57:28;;;;;;;7.72;3.80;;;;;;;;;;5056867;28;20025;-39
2022/07/13 00:59:55;;;;;;;5.85;4.78;;;;;;;;;;5056545;28;20048;-39
2022/07/13 01:02:21;;;;;;;5.45;4.35;;;;;;;;;;5056979;28;20094;-38
2022/07/13 01:04:47;;;;;;;9.90;5.60;;;;;;;;;;5055810;28;20132;-44
2022/07/13 01:07:14;;;;;;;13.18;5.13;;;;;;;;;;5055813;28;20029;-38
2022/07/13 01:09:41;;;;;;;7.55;4.57;;;;;;;;;;5054772;28;20436;-38
2022/07/13 01:12:07;;;;;;;10.70;6.03;;;;;;;;;;5055678;28;20082;-38
2022/07/13 01:14:34;;;;;;;8.45;5.57;;;;;;;;;;5055874;28;20032;-47
2022/07/13 01:17:00;;;;;;;7.70;5.93;;;;;;;;;;5056213;28;20108;-38
2022/07/13 01:19:26;;;;;;;11.02;5.28;;;;;;;;;;5055880;28;20120;-38
2022/07/13 01:21:55;;;;;;;10.55;5.70;;;;;;;;;;5055642;28;20025;-38
2022/07/13 01:24:22;;;;;;;9.63;5.73;;;;;;;;;;5055613;28;20112;-38
2022/07/13 01:26:49;;;;;;;11.32;6.45;;;;;;;;;;5055604;28;20037;-38
2022/07/13 01:29:15;;;;;;;9.82;6.32;;;;;;;;;;5055838;28;20025;-38
2022/07/13 01:31:41;;;;;;;9.85;6.85;;;;;;;;;;5056140;28;20036;-39
2022/07/13 01:34:08;;;;;;;10.50;6.88;;;;;;;;;;5055425;28;20483;-38
2022/07/13 01:36:35;;;;;;;9.27;6.65;;;;;;;;;;5055423;28;20021;-38
2022/07/13 01:39:02;;;;;;;11.10;6.40;;;;;;;;;;5054081;28;20357;-38
2022/07/13 01:41:29;;;;;;;9.27;7.43;;;;;;;;;;5055214;28;20017;-39
2022/07/13 01:43:57;;;;;;;9.10;6.25;;;;;;;;;;5055482;28;20427;-39
2022/07/13 01:46:23;;;;;;;12.48;7.45;;;;;;;;;;5053878;28;20094;-38
2022/07/13 01:48:49;;;;;;;13.55;6.40;;;;;;;;;;5055455;28;20029;-38
2022/07/13 01:51:15;;;;;;;8.32;6.22;;;;;;;;;;5055265;28;20104;-39
2022/07/13 01:53:41;;;;;;;16.00;7.82;;;;;;;;;;5055660;28;20112;-39
2022/07/13 01:56:07;;;;;;;13.90;7.65;;;;;;;;;;5055106;28;20030;-39
2022/07/13 01:58:33;;;;;;;8.05;5.63;;;;;;;;;;5055012;28;20115;-39
2022/07/13 02:01:00;;;;;;;8.63;6.03;;;;;;;;;;5054900;28;20492;-39
2022/07/13 02:03:26;;;;;;;8.43;6.30;;;;;;;;;;5054750;28;20021;-38
2022/07/13 02:05:52;;;;;;;12.52;7.25;;;;;;;;;;5053283;28;20132;-38
2022/07/13 02:08:18;;;;;;;10.48;7.07;;;;;;;;;;5054852;28;20135;-39
2022/07/13 02:10:44;;;;;;;9.55;6.18;;;;;;;;;;5054716;28;20036;-38
2022/07/13 02:13:11;;;;;;;8.55;6.68;;;;;;;;;;5055009;28;20025;-38
2022/07/13 02:15:37;;;;;;;12.57;6.63;;;;;;;;;;5054698;28;20025;-38
2022/07/13 02:18:04;;;;;;;10.88;6.93;;;;;;;;;;5054595;28;20499;-37
2022/07/13 02:20:30;;;;;;;12.10;7.28;;;;;;;;;;5054603;28;20100;-38
2022/07/13 02:22:56;;;;;;;9.93;6.78;;;;;;;;;;5053904;28;20476;-38
2022/07/13 02:25:22;;;;;;;7.20;6.43;;;;;;;;;;5054567;28;20025;-39
2022/07/13 02:27:48;;;;;;;11.13;6.95;;;;;;;;;;5055162;28;20032;-39
2022/07/13 02:30:15;;;;;;;9.13;6.82;;;;;;;;;;5054480;28;20021;-39
2022/07/13 02:32:42;;;;;;;12.27;7.43;;;;;;;;;;5054609;28;20013;-39
2022/07/13 02:35:08;;;;;;;12.77;6.90;;;;;;;;;;5054591;28;20469;-39
2022/07/13 02:37:34;;;;;;;8.48;7.50;;;;;;;;;;5054251;28;20025;-39
2022/07/13 02:40:00;;;;;;;9.02;6.97;;;;;;;;;;5054244;28;20426;-39
2022/07/13 02:42:26;;;;;;;12.02;7.20;;;;;;;;;;5054190;28;20028;-39
2022/07/13 02:44:53;;;;;;;12.40;7.47;;;;;;;;;;5054019;28;20390;-39
2022/07/13 02:47:19;;;;;;;9.13;6.32;;;;;;;;;;5054390;28;20025;-39
2022/07/13 02:49:45;;;;;;;10.65;6.22;;;;;;;;;;5054222;28;20098;-39
2022/07/13 02:52:11;;;;;;;9.70;6.70;;;;;;;;;;5054024;28;20492;-38
2022/07/13 02:54:37;;;;;;;9.77;6.22;;;;;;;;;;5054012;28;20044;-38
2022/07/13 02:57:05;;;;;;;10.80;6.88;;;;;;;;;;5054139;28;20116;-37
2022/07/13 02:59:37;;;;;;;11.93;6.85;;;;;;;;;;5052390;28;20381;-38
2022/07/13 03:02:04;;;;;;;8.63;7.70;;;;;;;;;;5053719;28;20108;-40
2022/07/13 03:04:31;;;;;;;12.65;6.70;;;;;;;;;;5053722;28;20049;-39
2022/07/13 03:06:57;;;;;;;11.07;6.90;;;;;;;;;;5053690;28;20106;-39
2022/07/13 03:09:23;;;;;;;7.88;6.85;;;;;;;;;;5052745;28;20533;-38
2022/07/13 03:11:50;;;;;;;10.23;7.05;;;;;;;;;;5053784;28;20055;-37
2022/07/13 03:14:16;;;;;;;10.93;7.07;;;;;;;;;;5052479;28;20025;-38
2022/07/13 03:16:42;;;;;;;13.38;7.65;;;;;;;;;;5052923;28;20399;-38
2022/07/13 20:08:55;;;;;;;6.75;3.00;;;;;;;;;;5071236;28;20386;-40
2022/07/13 20:11:21;;;;;;;3.65;2.13;;;;;;;;;;5071287;28;20029;-39
2022/07/13 20:13:48;;;;;;;7.68;3.30;;;;;;;;;;5070342;28;20017;-38
2022/07/13 20:16:14;;;;;;;6.00;2.78;;;;;;;;;;5070404;28;20071;-40
2022/07/13 20:18:40;;;;;;;2.90;2.60;;;;;;;;;;5070735;28;20415;-39
2022/07/13 20:21:06;;;;;;;5.63;2.90;;;;;;;;;;5070856;28;20114;-39
2022/07/13 20:23:42;;;;;;;8.85;2.78;;;;;;;;;;5070282;28;20028;-40
2022/07/13 20:26:08;;;;;;;7.28;2.88;;;;;;;;;;5070243;28;20025;-44
2022/07/13 20:28:35;;;;;;;4.78;2.67;;;;;;;;;;5070235;28;20366;-43
2022/07/13 20:31:02;;;;;;;5.40;3.08;;;;;;;;;;5070037;28;20392;-40
2022/07/13 20:33:31;;;;;;;6.93;2.85;;;;;;;;;;5069933;28;20031;-39
2022/07/13 20:35:57;;;;;;;5.18;2.60;;;;;;;;;;5070300;28;20028;-39
2022/07/13 20:38:23;;;;;;;3.67;3.00;;;;;;;;;;5069838;28;20032;-38
2022/07/13 20:40:52;;;;;;;5.72;3.03;;;;;;;;;;5069715;28;20481;-40
2022/07/13 20:43:18;;;;;;;4.28;2.45;;;;;;;;;;5070069;28;20028;-39
2022/07/13 20:45:45;;;;;;;5.75;2.50;;;;;;;;;;5070464;28;20021;-39
2022/07/13 20:48:11;;;;;;;4.28;2.80;;;;;;;;;;5069872;28;20036;-39
2022/07/13 20:50:37;;;;;;;6.45;2.60;;;;;;;;;;5069953;28;20067;-39
2022/07/13 20:53:03;;;;;;;5.70;3.00;;;;;;;;;;5069953;28;20042;-39
2022/07/13 20:55:29;;;;;;;7.72;2.95;;;;;;;;;;5069622;28;20032;-38
2022/07/13 20:57:55;;;;;;;3.45;2.80;;;;;;;;;;5069954;28;20052;-38
2022/07/13 21:00:21;;;;;;;3.97;2.88;;;;;;;;;;5070522;28;20024;-39
2022/07/13 21:02:47;;;;;;;4.78;2.65;;;;;;;;;;5069783;28;20174;-39
2022/07/13 21:05:13;;;;;;;7.20;3.97;;;;;;;;;;5069904;28;20024;-38
2022/07/13 21:07:39;;;;;;;5.72;3.00;;;;;;;;;;5069513;28;20489;-39
2022/07/13 21:10:05;;;;;;;3.75;2.55;;;;;;;;;;5069858;28;20492;-39
2022/07/13 21:12:32;;;;;;;7.93;2.90;;;;;;;;;;5070567;28;20084;-39
2022/07/13 21:14:58;;;;;;;4.65;2.95;;;;;;;;;;5069710;28;20403;-38
2022/07/13 21:17:24;;;;;;;4.53;3.00;;;;;;;;;;5069616;28;20021;-38
2022/07/13 21:19:50;;;;;;;6.25;3.22;;;;;;;;;;5058653;28;20025;-40
2022/07/13 21:22:16;;;;;;;6.93;3.17;;;;;;;;;;5056268;28;20127;-39
2022/07/13 21:24:42;;;;;;;2.78;2.45;;;;;;;;;;5055006;28;20036;-38
2022/07/13 21:27:08;;;;;;;3.92;3.00;;;;;;;;;;5056616;28;20354;-39
2022/07/13 21:29:34;;;;;;;4.07;2.63;;;;;;;;;;5056134;28;20471;-39
2022/07/13 21:32:00;;;;;;;9.82;3.53;;;;;;;;;;5056318;28;20044;-43
2022/07/13 21:34:26;;;;;;;6.20;3.15;;;;;;;;;;5055993;28;20096;-38
2022/07/13 21:36:52;;;;;;;9.02;3.58;;;;;;;;;;5054694;28;20029;-39
2022/07/13 21:39:18;;;;;;;5.95;3.20;;;;;;;;;;5056249;28;20048;-43
2022/07/13 21:41:44;;;;;;;4.57;3.53;;;;;;;;;;5055863;28;20036;-39
2022/07/13 21:44:10;;;;;;;7.20;2.92;;;;;;;;;;5056304;28;20025;-39
2022/07/13 21:46:36;;;;;;;4.65;2.88;;;;;;;;;;5056097;28;20041;-40
2022/07/13 21:49:02;;;;;;;5.40;2.53;;;;;;;;;;5056453;28;20473;-40
2022/07/13 21:51:28;;;;;;;7.63;2.92;;;;;;;;;;5056655;28;20025;-40
2022/07/13 21:53:54;;;;;;;6.13;2.97;;;;;;;;;;5055307;28;20105;-39
2022/07/13 21:56:20;;;;;;;4.93;2.60;;;;;;;;;;5055650;28;20021;-39
2022/07/13 21:58:46;;;;;;;11.07;3.72;;;;;;;;;;5056420;28;20071;-39
2022/07/13 22:01:12;;;;;;;2.97;2.67;;;;;;;;;;5055790;28;20032;-38
2022/07/13 22:03:38;;;;;;;8.05;3.00;;;;;;;;;;5055742;28;20385;-38
2022/07/13 22:06:08;;;;;;;5.68;3.03;;;;;;;;;;5055502;28;20113;-38
2022/07/13 22:08:34;;;;;;;6.43;3.07;;;;;;;;;;5054904;28;20041;-39
2022/07/13 22:11:18;;;;;;;9.68;3.72;;;;;;;;;;5053997;28;20388;-38
2022/07/13 22:14:03;;;;;;;7.97;2.90;;;;;;;;;;5053872;28;20044;-38
2022/07/13 22:16:48;;;;;;;5.07;2.83;;;;;;;;;;5055070;28;20036;-39
2022/07/13 22:19:32;;;;;;;8.02;3.92;;;;;;;;;;5054679;28;20025;-38
2022/07/13 22:22:18;;;;;;;6.05;3.25;;;;;;;;;;5053516;28;20036;-38
2022/07/13 22:25:03;;;;;;;4.50;2.85;;;;;;;;;;5054768;28;20031;-39
2022/07/13 22:27:47;;;;;;;4.82;3.17;;;;;;;;;;5056105;28;20033;-38
2022/07/13 22:30:32;;;;;;;8.85;3.40;;;;;;;;;;5054884;28;20040;-48
2022/07/13 22:33:17;;;;;;;8.43;3.67;;;;;;;;;;5054869;28;20079;-40
2022/07/13 22:36:02;;;;;;;5.97;3.65;;;;;;;;;;5054569;28;20476;-39
2022/07/13 22:38:46;;;;;;;16.33;3.97;;;;;;;;;;5054701;28;20032;-39
2022/07/13 22:41:31;;;;;;;9.95;3.88;;;;;;;;;;5054250;28;20384;-38
2022/07/13 22:44:15;;;;;;;10.90;4.00;;;;;;;;;;5054440;28;20111;-39
2022/07/13 22:47:00;;;;;;;5.43;3.53;;;;;;;;;;5053371;28;20025;-38
2022/07/13 22:49:46;;;;;;;7.07;3.30;;;;;;;;;;5053851;28;20431;-38
2022/07/13 22:52:30;;;;;;;6.60;3.30;;;;;;;;;;5054972;28;20105;-39
2022/07/13 22:55:15;;;;;;;7.47;3.20;;;;;;;;;;5054916;28;20053;-39
2022/07/13 22:58:00;;;;;;;8.63;3.20;;;;;;;;;;5053059;28;20029;-38
2022/07/13 23:00:44;;;;;;;10.48;4.47;;;;;;;;;;5054854;28;20025;-39
2022/07/13 23:03:29;;;;;;;6.93;3.03;;;;;;;;;;5054650;28;20029;-38
2022/07/13 23:06:14;;;;;;;7.15;2.85;;;;;;;;;;5054363;28;20060;-39
2022/07/13 23:08:58;;;;;;;8.65;2.92;;;;;;;;;;5052833;28;20040;-38
2022/07/13 23:11:43;;;;;;;13.35;4.35;;;;;;;;;;5054066;28;20118;-39
2022/07/13 23:14:27;;;;;;;15.43;4.22;;;;;;;;;;5053767;28;20025;-39
2022/07/13 23:17:12;;;;;;;13.27;3.50;;;;;;;;;;5052599;28;20036;-38
2022/07/13 23:19:57;;;;;;;10.93;3.40;;;;;;;;;;5053868;28;20025;-39
2022/07/13 23:22:41;;;;;;;10.10;3.28;;;;;;;;;;5054247;28;20029;-39
2022/07/13 23:25:27;;;;;;;9.05;3.88;;;;;;;;;;5052812;28;20476;-38
2022/07/13 23:28:11;;;;;;;8.70;3.47;;;;;;;;;;5053742;28;20077;-38
2022/07/13 23:30:40;;;;;;;14.88;4.18;;;;;;;;;;5053979;28;20021;-39
2022/07/13 23:33:07;;;;;;;10.32;4.60;;;;;;;;;;5054062;28;20032;-39
2022/07/13 23:35:33;;;;;;;12.35;5.90;;;;;;;;;;5054494;28;20021;-38
2022/07/13 23:38:00;;;;;;;14.05;6.15;;;;;;;;;;5054525;28;20025;-39
2022/07/13 23:40:26;;;;;;;14.63;6.07;;;;;;;;;;5053968;28;20040;-39
2022/07/13 23:42:52;;;;;;;28.85;9.10;;;;;;;;;;5051956;28;20443;-39
2022/07/13 23:45:18;;;;;;;19.88;6.10;;;;;;;;;;5054207;28;20033;-38
2022/07/13 23:47:44;;;;;;;16.73;6.53;;;;;;;;;;5053825;28;20029;-38
2022/07/13 23:50:10;;;;;;;19.90;7.25;;;;;;;;;;5052213;28;20020;-39
2022/07/13 23:52:36;;;;;;;18.10;7.28;;;;;;;;;;5053840;28;20052;-38
2022/07/13 23:55:02;;;;;;;21.55;8.10;;;;;;;;;;5053293;28;20021;-39
2022/07/13 23:57:28;;;;;;;16.80;6.57;;;;;;;;;;5052150;28;20025;-40
2022/07/13 23:59:55;;;;;;;17.83;6.20;;;;;;;;;;5053642;28;20032;-40
